Terminal Aerodrome Forecast
Issued by NWS

Home | Current Version | Previous Version | Text Only | Print | Product List | Glossary On
Versions: 1 2 3 4 5 6 7 8 9 10 11 12 13 14
000
FTUS42 KMLB 101100
TAFTIX
TAF
KTIX 101124Z 1012/1112 18005KT P6SM FEW100
     FM101300 VRB03KT P6SM FEW025 FEW250
     FM101700 09008KT P6SM VCTS SCT030CB SCT100 BKN250
     FM110000 18005KT P6SM VCSH SCT070 BKN140
     FM110600 VRB03KT P6SM BKN250=

USA.gov is the U.S. government's official web portal to all federal, state and local government web resources and services.